sensor_id;sensor_type;location;lat;lon;timestamp;pressure;altitude;pressure_sealevel;temperature;humidity
35655;BME280;21773;50.010;19.972;2024-01-30T00:00:03;100604.72;;;5.18;100.00
35655;BME280;21773;50.010;19.972;2024-01-30T00:03:07;100606.69;;;5.16;100.00
35655;BME280;21773;50.010;19.972;2024-01-30T00:06:10;100610.34;;;5.15;100.00
35655;BME280;21773;50.010;19.972;2024-01-30T00:09:15;100607.97;;;5.12;100.00
35655;BME280;21773;50.010;19.972;2024-01-30T00:12:18;100595.19;;;5.06;100.00
35655;BME280;21773;50.010;19.972;2024-01-30T00:15:21;100596.59;;;5.01;100.00
35655;BME280;21773;50.010;19.972;2024-01-30T00:18:24;100600.97;;;5.02;100.00
35655;BME280;21773;50.010;19.972;2024-01-30T00:21:27;100595.63;;;5.02;100.00
35655;BME280;21773;50.010;19.972;2024-01-30T00:24:32;100610.09;;;4.99;100.00
35655;BME280;21773;50.010;19.972;2024-01-30T00:27:35;100604.22;;;4.96;100.00
35655;BME280;21773;50.010;19.972;2024-01-30T00:30:38;100601.84;;;4.93;100.00
35655;BME280;21773;50.010;19.972;2024-01-30T00:33:42;100604.34;;;4.94;100.00
35655;BME280;21773;50.010;19.972;2024-01-30T00:36:45;100603.50;;;4.94;100.00
35655;BME280;21773;50.010;19.972;2024-01-30T00:39:49;100599.16;;;4.93;100.00
35655;BME280;21773;50.010;19.972;2024-01-30T00:42:53;100600.28;;;4.90;100.00
35655;BME280;21773;50.010;19.972;2024-01-30T00:45:56;100594.09;;;4.90;100.00
35655;BME280;21773;50.010;19.972;2024-01-30T00:48:59;100598.03;;;4.86;100.00
35655;BME280;21773;50.010;19.972;2024-01-30T00:52:03;100598.75;;;4.88;100.00
35655;BME280;21773;50.010;19.972;2024-01-30T00:55:08;100598.88;;;4.86;100.00
35655;BME280;21773;50.010;19.972;2024-01-30T00:58:11;100602.41;;;4.87;100.00
35655;BME280;21773;50.010;19.972;2024-01-30T01:01:14;100598.88;;;4.86;100.00
35655;BME280;21773;50.010;19.972;2024-01-30T01:04:20;100594.53;;;4.85;100.00
35655;BME280;21773;50.010;19.972;2024-01-30T01:07:24;100596.06;;;4.88;100.00
35655;BME280;21773;50.010;19.972;2024-01-30T01:10:28;100583.84;;;4.85;100.00
35655;BME280;21773;50.010;19.972;2024-01-30T01:13:31;100592.56;;;4.87;100.00
35655;BME280;21773;50.010;19.972;2024-01-30T01:16:35;100593.25;;;4.89;100.00
35655;BME280;21773;50.010;19.972;2024-01-30T01:19:39;100588.75;;;4.90;100.00
35655;BME280;21773;50.010;19.972;2024-01-30T01:22:42;100572.31;;;4.75;100.00
35655;BME280;21773;50.010;19.972;2024-01-30T01:25:47;100581.88;;;4.77;100.00
35655;BME280;21773;50.010;19.972;2024-01-30T01:28:50;100594.81;;;4.82;100.00
35655;BME280;21773;50.010;19.972;2024-01-30T01:31:53;100586.81;;;4.82;100.00
35655;BME280;21773;50.010;19.972;2024-01-30T01:34:56;100579.22;;;4.77;100.00
35655;BME280;21773;50.010;19.972;2024-01-30T01:37:59;100574.13;;;4.74;100.00
35655;BME280;21773;50.010;19.972;2024-01-30T01:41:04;100570.25;;;4.69;100.00
35655;BME280;21773;50.010;19.972;2024-01-30T01:44:07;100563.78;;;4.62;100.00
35655;BME280;21773;50.010;19.972;2024-01-30T01:47:10;100557.16;;;4.56;100.00
35655;BME280;21773;50.010;19.972;2024-01-30T01:50:15;100566.88;;;4.57;100.00
35655;BME280;21773;50.010;19.972;2024-01-30T01:53:20;100568.81;;;4.55;100.00
35655;BME280;21773;50.010;19.972;2024-01-30T01:56:26;100577.00;;;4.54;100.00
35655;BME280;21773;50.010;19.972;2024-01-30T01:59:30;100571.66;;;4.54;100.00
35655;BME280;21773;50.010;19.972;2024-01-30T02:02:35;100574.47;;;4.52;100.00
35655;BME280;21773;50.010;19.972;2024-01-30T02:05:39;100569.13;;;4.52;100.00
35655;BME280;21773;50.010;19.972;2024-01-30T02:08:44;100573.63;;;4.52;100.00
35655;BME280;21773;50.010;19.972;2024-01-30T02:11:48;100568.56;;;4.49;100.00
35655;BME280;21773;50.010;19.972;2024-01-30T02:14:51;100558.88;;;4.48;100.00
35655;BME280;21773;50.010;19.972;2024-01-30T02:17:56;100559.97;;;4.45;100.00
35655;BME280;21773;50.010;19.972;2024-01-30T02:21:04;100562.81;;;4.44;100.00
35655;BME280;21773;50.010;19.972;2024-01-30T02:24:07;100561.66;;;4.46;100.00
35655;BME280;21773;50.010;19.972;2024-01-30T02:27:10;100561.84;;;4.45;100.00
35655;BME280;21773;50.010;19.972;2024-01-30T02:30:14;100556.63;;;4.43;100.00
35655;BME280;21773;50.010;19.972;2024-01-30T02:33:17;100554.38;;;4.39;100.00
35655;BME280;21773;50.010;19.972;2024-01-30T02:36:21;100554.66;;;4.35;100.00
35655;BME280;21773;50.010;19.972;2024-01-30T02:39:24;100548.75;;;4.32;100.00
35655;BME280;21773;50.010;19.972;2024-01-30T02:42:27;100546.22;;;4.30;100.00
35655;BME280;21773;50.010;19.972;2024-01-30T02:45:31;100540.88;;;4.30;100.00
35655;BME280;21773;50.010;19.972;2024-01-30T02:48:34;100542.00;;;4.28;100.00
35655;BME280;21773;50.010;19.972;2024-01-30T02:51:39;100537.66;;;4.27;100.00
35655;BME280;21773;50.010;19.972;2024-01-30T02:54:42;100531.47;;;4.26;100.00
35655;BME280;21773;50.010;19.972;2024-01-30T02:57:45;100530.78;;;4.24;100.00
35655;BME280;21773;50.010;19.972;2024-01-30T03:00:48;100527.41;;;4.22;100.00
35655;BME280;21773;50.010;19.972;2024-01-30T03:03:51;100529.50;;;4.19;100.00
35655;BME280;21773;50.010;19.972;2024-01-30T03:06:56;100520.97;;;4.15;100.00
35655;BME280;21773;50.010;19.972;2024-01-30T03:09:59;100527.97;;;4.16;100.00
35655;BME280;21773;50.010;19.972;2024-01-30T03:13:03;100514.78;;;4.05;100.00
35655;BME280;21773;50.010;19.972;2024-01-30T03:16:08;100523.63;;;4.15;100.00
35655;BME280;21773;50.010;19.972;2024-01-30T03:19:11;100524.59;;;4.14;100.00
35655;BME280;21773;50.010;19.972;2024-01-30T03:22:16;100530.63;;;4.16;100.00
35655;BME280;21773;50.010;19.972;2024-01-30T03:25:19;100530.50;;;4.18;100.00
35655;BME280;21773;50.010;19.972;2024-01-30T03:28:22;100536.69;;;4.18;100.00
35655;BME280;21773;50.010;19.972;2024-01-30T03:31:26;100530.38;;;4.19;100.00
35655;BME280;21773;50.010;19.972;2024-01-30T03:34:29;100531.47;;;4.17;100.00
35655;BME280;21773;50.010;19.972;2024-01-30T03:37:33;100536.53;;;4.20;100.00
35655;BME280;21773;50.010;19.972;2024-01-30T03:40:37;100528.53;;;4.20;100.00
35655;BME280;21773;50.010;19.972;2024-01-30T03:43:40;100537.53;;;4.19;100.00
35655;BME280;21773;50.010;19.972;2024-01-30T03:46:43;100481.31;;;3.82;100.00
35655;BME280;21773;50.010;19.972;2024-01-30T03:49:46;100535.84;;;4.18;100.00
35655;BME280;21773;50.010;19.972;2024-01-30T03:52:51;100511.38;;;4.03;100.00
35655;BME280;21773;50.010;19.972;2024-01-30T03:55:54;100534.13;;;4.17;100.00
35655;BME280;21773;50.010;19.972;2024-01-30T03:58:57;100538.63;;;4.16;100.00
35655;BME280;21773;50.010;19.972;2024-01-30T04:02:02;100529.50;;;4.19;100.00
35655;BME280;21773;50.010;19.972;2024-01-30T04:05:07;100533.16;;;4.18;100.00
35655;BME280;21773;50.010;19.972;2024-01-30T04:08:11;100522.06;;;4.13;100.00
35655;BME280;21773;50.010;19.972;2024-01-30T04:11:14;100531.22;;;4.10;100.00
35655;BME280;21773;50.010;19.972;2024-01-30T04:14:17;100521.78;;;4.06;100.00
35655;BME280;21773;50.010;19.972;2024-01-30T04:17:20;100526.41;;;4.04;100.00
35655;BME280;21773;50.010;19.972;2024-01-30T04:20:24;100526.00;;;3.99;100.00
35655;BME280;21773;50.010;19.972;2024-01-30T04:23:28;100522.78;;;3.96;100.00
35655;BME280;21773;50.010;19.972;2024-01-30T04:26:31;100530.19;;;3.92;100.00
35655;BME280;21773;50.010;19.972;2024-01-30T04:29:34;100531.16;;;3.91;100.00
35655;BME280;21773;50.010;19.972;2024-01-30T04:32:37;100526.97;;;3.88;100.00
35655;BME280;21773;50.010;19.972;2024-01-30T04:35:40;100501.69;;;3.73;100.00
35655;BME280;21773;50.010;19.972;2024-01-30T04:38:45;100538.50;;;3.89;100.00
35655;BME280;21773;50.010;19.972;2024-01-30T04:41:48;100536.50;;;3.81;100.00
35655;BME280;21773;50.010;19.972;2024-01-30T04:44:51;100539.56;;;3.77;100.00
35655;BME280;21773;50.010;19.972;2024-01-30T04:47:54;100540.84;;;3.73;100.00
35655;BME280;21773;50.010;19.972;2024-01-30T04:50:58;100544.91;;;3.67;100.00
35655;BME280;21773;50.010;19.972;2024-01-30T04:54:06;100547.97;;;3.63;100.00
35655;BME280;21773;50.010;19.972;2024-01-30T04:57:09;100548.69;;;3.55;100.00
35655;BME280;21773;50.010;19.972;2024-01-30T05:00:14;100537.28;;;3.53;100.00
35655;BME280;21773;50.010;19.972;2024-01-30T05:03:17;100543.34;;;3.55;100.00
35655;BME280;21773;50.010;19.972;2024-01-30T05:06:24;100531.69;;;3.56;100.00
35655;BME280;21773;50.010;19.972;2024-01-30T05:09:29;100543.06;;;3.58;100.00
35655;BME280;21773;50.010;19.972;2024-01-30T05:12:32;100541.22;;;3.59;100.00
35655;BME280;21773;50.010;19.972;2024-01-30T05:15:35;100539.81;;;3.55;100.00
35655;BME280;21773;50.010;19.972;2024-01-30T05:18:39;100538.53;;;3.49;100.00
35655;BME280;21773;50.010;19.972;2024-01-30T05:21:42;100550.34;;;3.46;100.00
35655;BME280;21773;50.010;19.972;2024-01-30T05:24:47;100540.09;;;3.42;100.00
35655;BME280;21773;50.010;19.972;2024-01-30T05:27:50;100535.84;;;3.39;100.00
35655;BME280;21773;50.010;19.972;2024-01-30T05:30:53;100529.66;;;3.39;100.00
35655;BME280;21773;50.010;19.972;2024-01-30T05:33:56;100536.41;;;3.43;100.00
35655;BME280;21773;50.010;19.972;2024-01-30T05:36:59;100539.53;;;3.48;100.00
35655;BME280;21773;50.010;19.972;2024-01-30T05:40:05;100540.25;;;3.50;100.00
35655;BME280;21773;50.010;19.972;2024-01-30T05:43:09;100527.16;;;3.47;100.00
35655;BME280;21773;50.010;19.972;2024-01-30T05:46:12;100537.28;;;3.53;100.00
35655;BME280;21773;50.010;19.972;2024-01-30T05:49:15;100537.88;;;3.57;100.00
35655;BME280;21773;50.010;19.972;2024-01-30T05:52:18;100539.28;;;3.61;100.00
35655;BME280;21773;50.010;19.972;2024-01-30T05:55:23;100550.66;;;3.63;100.00
35655;BME280;21773;50.010;19.972;2024-01-30T05:58:26;100552.91;;;3.67;100.00
35655;BME280;21773;50.010;19.972;2024-01-30T06:01:29;100543.66;;;3.71;100.00
35655;BME280;21773;50.010;19.972;2024-01-30T06:04:32;100546.03;;;3.74;100.00
35655;BME280;21773;50.010;19.972;2024-01-30T06:07:36;100538.72;;;3.76;100.00
35655;BME280;21773;50.010;19.972;2024-01-30T06:10:41;100508.81;;;3.63;100.00
35655;BME280;21773;50.010;19.972;2024-01-30T06:13:44;100540.72;;;3.84;100.00
35655;BME280;21773;50.010;19.972;2024-01-30T06:16:47;100541.56;;;3.84;100.00
35655;BME280;21773;50.010;19.972;2024-01-30T06:19:50;100540.44;;;3.87;100.00
35655;BME280;21773;50.010;19.972;2024-01-30T06:22:53;100549.16;;;3.89;100.00
35655;BME280;21773;50.010;19.972;2024-01-30T06:25:58;100544.50;;;3.91;100.00
35655;BME280;21773;50.010;19.972;2024-01-30T06:29:01;100542.00;;;3.99;100.00
35655;BME280;21773;50.010;19.972;2024-01-30T06:32:05;100542.69;;;4.20;100.00
35655;BME280;21773;50.010;19.972;2024-01-30T06:35:08;100547.63;;;4.44;100.00
35655;BME280;21773;50.010;19.972;2024-01-30T06:38:12;100542.25;;;5.10;100.00
35655;BME280;21773;50.010;19.972;2024-01-30T06:41:18;100533.50;;;5.99;100.00
35655;BME280;21773;50.010;19.972;2024-01-30T06:44:25;100535.41;;;7.20;100.00
35655;BME280;21773;50.010;19.972;2024-01-30T06:47:30;100533.25;;;8.40;100.00
35655;BME280;21773;50.010;19.972;2024-01-30T06:50:33;100539.72;;;9.18;100.00
35655;BME280;21773;50.010;19.972;2024-01-30T06:53:36;100539.91;;;9.08;100.00
35655;BME280;21773;50.010;19.972;2024-01-30T06:56:40;100497.09;;;8.26;100.00
35655;BME280;21773;50.010;19.972;2024-01-30T06:59:44;100535.84;;;7.99;100.00
35655;BME280;21773;50.010;19.972;2024-01-30T07:02:47;100526.97;;;7.49;100.00
35655;BME280;21773;50.010;19.972;2024-01-30T07:05:50;100536.13;;;7.30;100.00
35655;BME280;21773;50.010;19.972;2024-01-30T07:08:53;100535.03;;;7.15;100.00
35655;BME280;21773;50.010;19.972;2024-01-30T07:11:57;100535.91;;;7.23;100.00
35655;BME280;21773;50.010;19.972;2024-01-30T07:15:01;100547.66;;;7.56;100.00
35655;BME280;21773;50.010;19.972;2024-01-30T07:18:05;100541.47;;;7.64;100.00
35655;BME280;21773;50.010;19.972;2024-01-30T07:21:09;100535.75;;;7.59;100.00
35655;BME280;21773;50.010;19.972;2024-01-30T07:24:12;100530.19;;;7.52;100.00
35655;BME280;21773;50.010;19.972;2024-01-30T07:27:17;100541.97;;;7.67;100.00
35655;BME280;21773;50.010;19.972;2024-01-30T07:30:20;100546.00;;;8.70;100.00
35655;BME280;21773;50.010;19.972;2024-01-30T07:33:23;100543.34;;;10.03;100.00
35655;BME280;21773;50.010;19.972;2024-01-30T07:36:27;100535.53;;;12.08;99.86
35655;BME280;21773;50.010;19.972;2024-01-30T07:39:30;100537.50;;;15.14;85.82
35655;BME280;21773;50.010;19.972;2024-01-30T07:42:34;100537.53;;;18.20;72.00
35655;BME280;21773;50.010;19.972;2024-01-30T07:45:37;100532.22;;;20.85;60.90
35655;BME280;21773;50.010;19.972;2024-01-30T07:48:41;100535.25;;;23.06;51.22
35655;BME280;21773;50.010;19.972;2024-01-30T07:51:44;100534.63;;;24.80;44.88
35655;BME280;21773;50.010;19.972;2024-01-30T07:54:49;100532.66;;;26.26;40.51
35655;BME280;21773;50.010;19.972;2024-01-30T07:57:54;100524.31;;;27.33;35.93
35655;BME280;21773;50.010;19.972;2024-01-30T08:00:58;100514.13;;;28.23;34.58
35655;BME280;21773;50.010;19.972;2024-01-30T08:04:02;100528.84;;;28.94;32.94
35655;BME280;21773;50.010;19.972;2024-01-30T08:07:06;100526.03;;;29.58;32.32
35655;BME280;21773;50.010;19.972;2024-01-30T08:10:11;100524.03;;;30.27;30.39
35655;BME280;21773;50.010;19.972;2024-01-30T08:13:16;100525.00;;;31.25;29.73
35655;BME280;21773;50.010;19.972;2024-01-30T08:16:19;100535.75;;;32.37;28.56
35655;BME280;21773;50.010;19.972;2024-01-30T08:19:23;100529.13;;;33.36;26.90
35655;BME280;21773;50.010;19.972;2024-01-30T08:22:26;100528.28;;;33.82;25.36
35655;BME280;21773;50.010;19.972;2024-01-30T08:25:30;100518.03;;;34.45;25.36
35655;BME280;21773;50.010;19.972;2024-01-30T08:28:34;100526.16;;;35.12;24.02
35655;BME280;21773;50.010;19.972;2024-01-30T08:31:38;100521.56;;;35.64;23.82
35655;BME280;21773;50.010;19.972;2024-01-30T08:34:41;100516.56;;;36.19;22.66
35655;BME280;21773;50.010;19.972;2024-01-30T08:37:44;100516.59;;;36.86;22.71
35655;BME280;21773;50.010;19.972;2024-01-30T08:40:47;100517.91;;;37.48;22.31
35655;BME280;21773;50.010;19.972;2024-01-30T08:43:52;100517.38;;;37.74;22.44
35655;BME280;21773;50.010;19.972;2024-01-30T08:46:56;100521.16;;;37.50;21.83
35655;BME280;21773;50.010;19.972;2024-01-30T08:50:01;100514.91;;;37.41;21.33
35655;BME280;21773;50.010;19.972;2024-01-30T08:53:04;100518.19;;;37.59;21.53
35655;BME280;21773;50.010;19.972;2024-01-30T08:56:08;100510.00;;;37.85;21.55
35655;BME280;21773;50.010;19.972;2024-01-30T08:59:12;100520.00;;;38.33;21.63
35655;BME280;21773;50.010;19.972;2024-01-30T09:02:15;100504.94;;;38.61;20.94
35655;BME280;21773;50.010;19.972;2024-01-30T09:05:20;100510.16;;;39.00;20.69
35655;BME280;21773;50.010;19.972;2024-01-30T09:08:23;100504.47;;;39.20;20.74
35655;BME280;21773;50.010;19.972;2024-01-30T09:11:26;100503.75;;;39.46;20.47
35655;BME280;21773;50.010;19.972;2024-01-30T09:14:34;100504.13;;;39.44;19.89
35655;BME280;21773;50.010;19.972;2024-01-30T09:17:37;100506.75;;;39.79;20.45
35655;BME280;21773;50.010;19.972;2024-01-30T09:20:40;100497.28;;;39.45;20.21
35655;BME280;21773;50.010;19.972;2024-01-30T09:23:43;100508.94;;;39.89;20.59
35655;BME280;21773;50.010;19.972;2024-01-30T09:26:47;100499.09;;;40.32;19.86
35655;BME280;21773;50.010;19.972;2024-01-30T09:29:51;100496.03;;;40.44;19.49
35655;BME280;21773;50.010;19.972;2024-01-30T09:32:54;100485.91;;;40.73;19.39
35655;BME280;21773;50.010;19.972;2024-01-30T09:35:57;100481.44;;;41.05;19.48
35655;BME280;21773;50.010;19.972;2024-01-30T09:39:00;100482.34;;;41.57;18.97
35655;BME280;21773;50.010;19.972;2024-01-30T09:42:10;100480.19;;;41.43;18.54
35655;BME280;21773;50.010;19.972;2024-01-30T09:45:18;100485.38;;;41.38;18.90
35655;BME280;21773;50.010;19.972;2024-01-30T09:48:21;100469.66;;;41.44;18.65
35655;BME280;21773;50.010;19.972;2024-01-30T09:51:26;100471.34;;;41.48;18.64
35655;BME280;21773;50.010;19.972;2024-01-30T09:54:30;100472.00;;;41.82;18.76
35655;BME280;21773;50.010;19.972;2024-01-30T09:57:38;100464.81;;;41.92;18.52
35655;BME280;21773;50.010;19.972;2024-01-30T10:00:43;100463.31;;;42.16;18.20
35655;BME280;21773;50.010;19.972;2024-01-30T10:03:46;100462.13;;;42.17;17.10
35655;BME280;21773;50.010;19.972;2024-01-30T10:06:50;100457.75;;;42.30;17.38
35655;BME280;21773;50.010;19.972;2024-01-30T10:09:54;100463.91;;;42.50;16.54
35655;BME280;21773;50.010;19.972;2024-01-30T10:12:58;100462.78;;;42.68;16.61
35655;BME280;21773;50.010;19.972;2024-01-30T10:16:07;100453.09;;;42.80;16.30
35655;BME280;21773;50.010;19.972;2024-01-30T10:19:10;100453.09;;;42.80;16.51
35655;BME280;21773;50.010;19.972;2024-01-30T10:22:13;100443.78;;;42.97;15.84
35655;BME280;21773;50.010;19.972;2024-01-30T10:25:17;100445.06;;;43.17;15.92
35655;BME280;21773;50.010;19.972;2024-01-30T10:28:21;100437.75;;;43.24;15.75
35655;BME280;21773;50.010;19.972;2024-01-30T10:31:26;100432.06;;;43.27;15.74
35655;BME280;21773;50.010;19.972;2024-01-30T10:34:30;100434.50;;;43.32;15.38
35655;BME280;21773;50.010;19.972;2024-01-30T10:37:33;100430.84;;;43.60;16.03
35655;BME280;21773;50.010;19.972;2024-01-30T10:40:38;100426.38;;;43.73;15.64
35655;BME280;21773;50.010;19.972;2024-01-30T10:43:44;100420.69;;;43.70;15.47
35655;BME280;21773;50.010;19.972;2024-01-30T10:46:59;100410.13;;;43.70;15.43
35655;BME280;21773;50.010;19.972;2024-01-30T10:50:04;100408.13;;;43.64;15.58
35655;BME280;21773;50.010;19.972;2024-01-30T10:53:08;100403.22;;;43.75;15.58
35655;BME280;21773;50.010;19.972;2024-01-30T10:56:12;100403.66;;;43.66;15.81
35655;BME280;21773;50.010;19.972;2024-01-30T10:59:16;100397.94;;;43.70;15.65
35655;BME280;21773;50.010;19.972;2024-01-30T11:02:21;100395.53;;;43.61;15.20
35655;BME280;21773;50.010;19.972;2024-01-30T11:05:27;100391.09;;;43.56;15.94
35655;BME280;21773;50.010;19.972;2024-01-30T11:08:35;100389.06;;;43.46;15.41
35655;BME280;21773;50.010;19.972;2024-01-30T11:11:51;100363.91;;;43.38;15.36
35655;BME280;21773;50.010;19.972;2024-01-30T11:15:05;100381.75;;;43.42;15.09
35655;BME280;21773;50.010;19.972;2024-01-30T11:18:10;100376.91;;;43.42;15.61
35655;BME280;21773;50.010;19.972;2024-01-30T11:21:13;100373.22;;;43.67;15.51
35655;BME280;21773;50.010;19.972;2024-01-30T11:24:18;100368.75;;;43.69;15.61
35655;BME280;21773;50.010;19.972;2024-01-30T11:27:22;100372.03;;;43.57;15.38
35655;BME280;21773;50.010;19.972;2024-01-30T11:30:26;100365.53;;;43.56;15.10
35655;BME280;21773;50.010;19.972;2024-01-30T11:33:31;100358.25;;;43.34;15.21
35655;BME280;21773;50.010;19.972;2024-01-30T11:36:36;100358.66;;;42.94;15.84
35655;BME280;21773;50.010;19.972;2024-01-30T11:39:41;100350.16;;;43.04;15.93
35655;BME280;21773;50.010;19.972;2024-01-30T11:42:47;100350.16;;;43.08;15.35
35655;BME280;21773;50.010;19.972;2024-01-30T11:45:50;100342.88;;;43.14;15.56
35655;BME280;21773;50.010;19.972;2024-01-30T11:48:55;100347.31;;;43.01;15.39
35655;BME280;21773;50.010;19.972;2024-01-30T11:51:58;100350.94;;;42.84;15.20
35655;BME280;21773;50.010;19.972;2024-01-30T11:55:02;100348.06;;;42.55;15.52
35655;BME280;21773;50.010;19.972;2024-01-30T11:58:05;100348.41;;;42.29;15.61
35655;BME280;21773;50.010;19.972;2024-01-30T12:01:08;100342.22;;;42.06;15.67
35655;BME280;21773;50.010;19.972;2024-01-30T12:04:13;100340.88;;;41.82;15.68
35655;BME280;21773;50.010;19.972;2024-01-30T12:07:16;100329.06;;;41.69;15.76
35655;BME280;21773;50.010;19.972;2024-01-30T12:10:21;100342.38;;;41.58;15.94
35655;BME280;21773;50.010;19.972;2024-01-30T12:13:25;100321.25;;;41.45;15.78
35655;BME280;21773;50.010;19.972;2024-01-30T12:16:33;100320.91;;;41.02;15.95
35655;BME280;21773;50.010;19.972;2024-01-30T12:19:38;100316.44;;;40.57;16.09
35655;BME280;21773;50.010;19.972;2024-01-30T12:22:42;100318.13;;;40.21;16.02
35655;BME280;21773;50.010;19.972;2024-01-30T12:25:45;100311.75;;;39.98;16.50
35655;BME280;21773;50.010;19.972;2024-01-30T12:28:50;100295.88;;;39.57;16.12
35655;BME280;21773;50.010;19.972;2024-01-30T12:31:54;100308.47;;;39.36;16.42
35655;BME280;21773;50.010;19.972;2024-01-30T12:35:01;100314.78;;;38.81;16.68
35655;BME280;21773;50.010;19.972;2024-01-30T12:38:04;100308.38;;;38.38;17.39
35655;BME280;21773;50.010;19.972;2024-01-30T12:41:07;100307.81;;;37.91;17.43
35655;BME280;21773;50.010;19.972;2024-01-30T12:44:13;100309.28;;;37.30;17.97
35655;BME280;21773;50.010;19.972;2024-01-30T12:47:16;100298.78;;;35.93;18.84
35655;BME280;21773;50.010;19.972;2024-01-30T12:50:21;100302.13;;;34.38;18.73
35655;BME280;21773;50.010;19.972;2024-01-30T12:53:24;100300.84;;;32.73;20.35
35655;BME280;21773;50.010;19.972;2024-01-30T12:56:27;100299.56;;;31.15;22.10
35655;BME280;21773;50.010;19.972;2024-01-30T12:59:31;100301.47;;;30.05;22.96
35655;BME280;21773;50.010;19.972;2024-01-30T13:02:34;100302.22;;;29.11;23.83
35655;BME280;21773;50.010;19.972;2024-01-30T13:05:40;100300.69;;;28.32;24.89
35655;BME280;21773;50.010;19.972;2024-01-30T13:08:43;100291.72;;;27.51;26.15
35655;BME280;21773;50.010;19.972;2024-01-30T13:11:46;100287.09;;;26.81;27.19
35655;BME280;21773;50.010;19.972;2024-01-30T13:14:49;100287.44;;;26.16;27.25
35655;BME280;21773;50.010;19.972;2024-01-30T13:17:52;100287.47;;;25.38;28.91
35655;BME280;21773;50.010;19.972;2024-01-30T13:20:58;100286.06;;;24.82;29.57
35655;BME280;21773;50.010;19.972;2024-01-30T13:24:01;100284.00;;;24.13;30.89
35655;BME280;21773;50.010;19.972;2024-01-30T13:27:06;100283.69;;;23.54;31.53
35655;BME280;21773;50.010;19.972;2024-01-30T13:30:09;100281.84;;;23.02;32.74
35655;BME280;21773;50.010;19.972;2024-01-30T13:33:12;100282.72;;;22.56;33.82
35655;BME280;21773;50.010;19.972;2024-01-30T13:36:17;100284.41;;;22.20;34.46
35655;BME280;21773;50.010;19.972;2024-01-30T13:39:20;100279.88;;;21.98;34.99
35655;BME280;21773;50.010;19.972;2024-01-30T13:42:26;100286.16;;;21.67;35.96
35655;BME280;21773;50.010;19.972;2024-01-30T13:45:30;100290.25;;;21.65;35.86
35655;BME280;21773;50.010;19.972;2024-01-30T13:48:33;100284.19;;;21.36;36.73
35655;BME280;21773;50.010;19.972;2024-01-30T13:51:38;100290.91;;;21.01;37.80
35655;BME280;21773;50.010;19.972;2024-01-30T13:54:41;100290.59;;;20.76;37.91
35655;BME280;21773;50.010;19.972;2024-01-30T13:57:44;100285.16;;;20.59;38.38
35655;BME280;21773;50.010;19.972;2024-01-30T14:00:50;100287.28;;;20.36;39.91
35655;BME280;21773;50.010;19.972;2024-01-30T14:03:54;100288.28;;;20.13;41.90
35655;BME280;21773;50.010;19.972;2024-01-30T14:06:58;100285.47;;;19.91;42.95
35655;BME280;21773;50.010;19.972;2024-01-30T14:10:07;100277.75;;;19.71;43.83
35655;BME280;21773;50.010;19.972;2024-01-30T14:13:14;100270.94;;;19.57;46.54
35655;BME280;21773;50.010;19.972;2024-01-30T14:16:17;100288.13;;;19.69;46.30
35655;BME280;21773;50.010;19.972;2024-01-30T14:19:21;100277.09;;;19.64;46.43
35655;BME280;21773;50.010;19.972;2024-01-30T14:22:26;100278.16;;;19.63;47.29
35655;BME280;21773;50.010;19.972;2024-01-30T14:25:29;100283.53;;;19.58;47.60
35655;BME280;21773;50.010;19.972;2024-01-30T14:28:32;100274.91;;;19.50;47.68
35655;BME280;21773;50.010;19.972;2024-01-30T14:31:35;100276.41;;;19.29;48.51
35655;BME280;21773;50.010;19.972;2024-01-30T14:34:39;100275.09;;;18.91;50.28
35655;BME280;21773;50.010;19.972;2024-01-30T14:37:43;100274.84;;;18.65;50.78
35655;BME280;21773;50.010;19.972;2024-01-30T14:40:46;100271.16;;;18.36;52.25
35655;BME280;21773;50.010;19.972;2024-01-30T14:43:49;100264.66;;;18.02;53.35
35655;BME280;21773;50.010;19.972;2024-01-30T14:46:53;100281.22;;;17.89;53.69
35655;BME280;21773;50.010;19.972;2024-01-30T14:49:57;100269.09;;;17.61;54.48
35655;BME280;21773;50.010;19.972;2024-01-30T14:53:01;100280.00;;;17.31;56.15
35655;BME280;21773;50.010;19.972;2024-01-30T14:56:05;100273.50;;;17.03;57.85
35655;BME280;21773;50.010;19.972;2024-01-30T14:59:08;100273.06;;;16.69;59.59
35655;BME280;21773;50.010;19.972;2024-01-30T15:02:13;100218.06;;;16.06;61.16
35655;BME280;21773;50.010;19.972;2024-01-30T15:05:16;100279.91;;;16.17;62.95
35655;BME280;21773;50.010;19.972;2024-01-30T15:08:21;100281.19;;;15.90;64.08
35655;BME280;21773;50.010;19.972;2024-01-30T15:11:24;100274.06;;;15.64;64.72
35655;BME280;21773;50.010;19.972;2024-01-30T15:14:27;100282.19;;;15.39;66.08
35655;BME280;21773;50.010;19.972;2024-01-30T15:17:30;100285.88;;;15.13;67.86
35655;BME280;21773;50.010;19.972;2024-01-30T15:20:34;100289.75;;;14.86;70.25
35655;BME280;21773;50.010;19.972;2024-01-30T15:23:38;100286.94;;;14.61;72.52
35655;BME280;21773;50.010;19.972;2024-01-30T15:26:41;100287.63;;;14.37;74.56
35655;BME280;21773;50.010;19.972;2024-01-30T15:29:44;100285.34;;;14.14;76.40
35655;BME280;21773;50.010;19.972;2024-01-30T15:32:47;100281.22;;;13.92;78.11
35655;BME280;21773;50.010;19.972;2024-01-30T15:35:51;100291.00;;;13.73;79.09
35655;BME280;21773;50.010;19.972;2024-01-30T15:38:55;100295.78;;;13.52;80.44
35655;BME280;21773;50.010;19.972;2024-01-30T15:41:58;100291.78;;;13.34;82.29
35655;BME280;21773;50.010;19.972;2024-01-30T15:45:01;100290.09;;;13.14;83.08
35655;BME280;21773;50.010;19.972;2024-01-30T15:48:05;100279.78;;;12.89;84.34